Time;durP1;ratioP1;P1;durP2;ratioP2;P2;SDS_P1;SDS_P2;PMS_P1;PMS_P2;Temp;Humidity;BMP_temperature;BMP_pressure;BME280_temperature;BME280_humidity;BME280_pressure;Samples;Min_cycle;Max_cycle;Signal;HPM_P1;HPM_P2
2024/02/28 00:00:06;;;;;;;;;8.00;6.00;;;;;7.31;65.04;102027.28;2043424;27;2745073;-74
2024/02/28 00:01:17;;;;;;;;;9.00;6.00;;;;;7.26;65.28;102029.00;2034348;27;2753459;-73
2024/02/28 00:02:29;;;;;;;;;9.00;7.00;;;;;7.25;65.53;102027.28;2046302;27;3477327;-73
2024/02/28 00:03:40;;;;;;;;;8.50;8.50;;;;;7.22;65.52;102031.63;2028895;27;2740882;-73
2024/02/28 00:04:51;;;;;;;;;7.33;6.00;;;;;7.19;65.41;102032.50;2046306;27;2740884;-73
2024/02/28 00:06:04;;;;;;;;;8.50;7.83;;;;;7.17;65.63;102036.84;2029461;27;2739860;-73
2024/02/28 00:07:18;;;;;;;;;6.83;6.00;;;;;7.17;65.92;102040.34;2036631;27;2746463;-73
2024/02/28 00:08:29;;;;;;;;;9.00;9.00;;;;;7.15;65.97;102030.75;2033976;27;2756652;-73
2024/02/28 00:09:40;;;;;;;;;7.67;6.67;;;;;7.10;65.61;102028.13;2066951;27;2744014;-73
2024/02/28 00:10:53;;;;;;;;;8.00;7.00;;;;;7.15;66.01;102030.75;2058061;27;2741928;-73
2024/02/28 00:12:07;;;;;;;;;6.67;6.00;;;;;7.10;65.55;102020.28;2049136;27;2745135;-73
2024/02/28 00:13:22;;;;;;;;;8.17;7.00;;;;;7.13;65.96;102029.88;2059717;27;2743036;-73
2024/02/28 00:14:32;;;;;;;;;10.33;9.33;;;;;7.10;65.75;102025.50;2033929;27;2765448;-73
2024/02/28 00:15:43;;;;;;;;;9.33;8.00;;;;;7.06;65.99;102018.53;2059295;27;2737792;-73
2024/02/28 00:16:54;;;;;;;;;6.67;6.67;;;;;7.04;65.89;102015.91;2035073;27;3462758;-73
2024/02/28 00:18:05;;;;;;;;;3.00;3.00;;;;;7.08;65.85;102029.88;2059907;27;2731523;-73
2024/02/28 00:19:17;;;;;;;;;14.33;7.33;;;;;7.06;66.01;102021.16;2010189;27;3488803;-73
2024/02/28 00:20:31;;;;;;;;;6.83;6.17;;;;;6.96;66.18;102000.19;2052486;27;2747206;-74
2024/02/28 00:21:44;;;;;;;;;8.67;8.00;;;;;7.11;66.42;102021.16;2058403;27;2754420;-74
2024/02/28 00:22:57;;;;;;;;;7.67;6.83;;;;;7.14;65.96;102028.97;2061008;27;2748182;-73
2024/02/28 00:24:08;;;;;;;;;6.00;5.67;;;;;7.14;66.25;102032.47;2030651;27;3465926;-73
2024/02/28 00:25:19;;;;;;;;;10.00;4.50;;;;;7.11;66.01;102029.88;2033111;27;2766990;-73
2024/02/28 00:26:30;;;;;;;;;7.00;7.00;;;;;7.10;66.12;102030.75;2057223;27;2746115;-73
2024/02/28 00:27:43;;;;;;;;;8.00;7.00;;;;;7.08;66.07;102020.28;2037606;27;2740882;-73
2024/02/28 00:28:53;;;;;;;;;11.67;8.00;;;;;7.10;65.85;102022.88;2014998;27;2762782;-73
2024/02/28 00:30:07;;;;;;;;;6.67;6.33;;;;;7.12;66.13;102022.88;2042598;27;3466955;-73
2024/02/28 00:31:18;;;;;;;;;8.33;6.33;;;;;7.13;66.10;102024.66;2027809;27;3453362;-73
2024/02/28 00:32:31;;;;;;;;;7.20;6.00;;;;;7.16;66.71;102029.88;2056043;27;2745597;-73
2024/02/28 00:33:44;;;;;;;;;6.33;6.00;;;;;7.15;66.09;102025.50;2059765;27;2737795;-73
2024/02/28 00:34:57;;;;;;;;;8.17;8.00;;;;;7.13;66.54;102011.56;2053530;27;2750250;-73
2024/02/28 00:36:10;;;;;;;;;8.00;5.17;;;;;7.14;66.13;102022.03;2055845;27;2748202;-73
2024/02/28 00:37:21;;;;;;;;;7.33;7.33;;;;;7.05;65.84;102008.94;2033307;27;2736712;-74
2024/02/28 00:38:32;;;;;;;;;11.00;7.33;;;;;7.10;66.34;102012.44;2036443;27;2769091;-73
2024/02/28 00:39:45;;;;;;;;;8.00;6.00;;;;;7.09;66.19;102013.28;2046995;27;3469005;-73
2024/02/28 00:40:56;;;;;;;;;9.00;9.00;;;;;7.09;66.57;102018.50;2027553;27;2756606;-73
2024/02/28 00:42:07;;;;;;;;;6.33;6.33;;;;;7.12;66.75;102021.16;2059948;27;2754486;-74
2024/02/28 00:43:18;;;;;;;;;8.00;6.25;;;;;7.10;66.29;102015.03;2046990;27;1831558;-75
2024/02/28 00:44:31;;;;;;;;;5.83;5.50;;;;;7.09;66.75;102023.75;2062587;27;2742993;-74
2024/02/28 00:45:44;;;;;;;;;7.50;6.00;;;;;7.08;66.39;102016.78;2062521;27;2745120;-73
2024/02/28 00:46:58;;;;;;;;;7.83;7.67;;;;;7.07;66.93;102022.88;2062289;27;2735649;-74
2024/02/28 00:48:11;;;;;;;;;6.67;5.17;;;;;7.09;66.47;102015.91;2057363;27;2749632;-74
2024/02/28 00:49:24;;;;;;;;;8.83;7.50;;;;;7.13;66.80;102022.91;2053012;27;2748174;-73
2024/02/28 00:50:37;;;;;;;;;8.67;7.50;;;;;7.11;66.21;102016.81;2052996;27;2738352;-73
2024/02/28 00:51:50;;;;;;;;;6.67;6.00;;;;;7.16;66.37;102030.75;2059349;27;2752351;-74
2024/02/28 00:53:04;;;;;;;;;8.17;8.17;;;;;7.18;66.54;102034.25;2053553;27;2735700;-74
2024/02/28 00:54:14;;;;;;;;;13.00;6.33;;;;;7.15;66.52;102022.91;2028177;27;2760657;-74
2024/02/28 00:55:25;;;;;;;;;12.67;7.00;;;;;7.17;65.98;102029.00;2048965;27;3483035;-74
2024/02/28 00:56:36;;;;;;;;;9.67;6.67;;;;;7.22;66.41;102037.72;2056245;27;2750267;-73
2024/02/28 00:57:47;;;;;;;;;7.00;6.00;;;;;7.21;66.65;102038.59;2022698;27;1818008;-73
2024/02/28 00:58:58;;;;;;;;;11.67;9.33;;;;;7.22;66.27;102042.97;2022607;27;3480482;-74
2024/02/28 01:00:09;;;;;;;;;8.33;7.67;;;;;7.19;66.41;102029.88;2052782;27;2738588;-73
2024/02/28 01:01:22;;;;;;;;;7.50;6.50;;;;;7.21;66.51;102043.81;2037211;27;2747148;-74
2024/02/28 01:02:36;;;;;;;;;8.17;6.33;;;;;7.23;66.46;102052.56;2055688;27;2744126;-73
2024/02/28 01:03:49;;;;;;;;;6.33;6.33;;;;;7.26;66.02;102043.84;2059313;27;2738041;-74
2024/02/28 01:05:03;;;;;;;;;7.83;7.83;;;;;7.26;66.47;102044.72;2051499;27;2735737;-74
2024/02/28 01:06:15;;;;;;;;;7.33;7.33;;;;;7.28;66.72;102042.13;2046467;27;1832535;-74
2024/02/28 01:07:26;;;;;;;;;11.00;10.67;;;;;7.29;66.57;102038.59;2010067;27;3493010;-74
2024/02/28 01:08:37;;;;;;;;;14.67;8.00;;;;;7.35;66.45;102043.00;2047020;27;2760718;-73
2024/02/28 01:09:48;;;;;;;;;12.67;9.00;;;;;7.28;66.43;102026.41;2044664;27;3486719;-73
2024/02/28 01:10:59;;;;;;;;;8.00;7.00;;;;;7.27;66.30;102029.91;2051133;27;2739884;-73
2024/02/28 01:12:09;;;;;;;;;14.33;9.00;;;;;7.27;66.51;102033.38;2003759;27;3483595;-74
2024/02/28 01:13:20;;;;;;;;;8.00;6.00;;;;;7.39;66.32;102045.59;2048516;27;3470027;-73
2024/02/28 01:14:33;;;;;;;;;8.60;8.60;;;;;7.31;65.87;102031.63;2057112;27;2732011;-73
2024/02/28 01:15:46;;;;;;;;;8.83;8.33;;;;;7.40;66.22;102044.75;2031337;27;2734724;-73
2024/02/28 01:16:57;;;;;;;;;13.00;9.33;;;;;7.33;65.90;102035.16;2018220;28;3493998;-73
2024/02/28 01:18:09;;;;;;;;;10.33;8.33;;;;;7.40;66.40;102042.13;2043797;27;3473141;-74
2024/02/28 01:19:19;;;;;;;;;13.33;8.00;;;;;7.39;66.25;102037.75;2028296;27;3491963;-74
2024/02/28 01:20:30;;;;;;;;;8.33;7.67;;;;;7.39;65.79;102034.28;2050395;27;3448162;-73
2024/02/28 01:21:41;;;;;;;;;9.67;8.33;;;;;7.51;66.11;102049.09;2049100;27;2761837;-74
2024/02/28 01:22:54;;;;;;;;;8.00;8.00;;;;;7.48;65.80;102043.88;2060362;27;2744022;-74
2024/02/28 01:24:04;;;;;;;;;11.00;7.67;;;;;7.47;65.91;102036.91;2028516;27;2769061;-73
2024/02/28 01:25:16;;;;;;;;;6.00;6.00;;;;;7.52;66.33;102043.00;2052450;27;2748181;-73
2024/02/28 01:26:29;;;;;;;;;9.00;7.00;;;;;7.42;66.32;102029.03;2060096;27;2743312;-74
2024/02/28 01:27:43;;;;;;;;;8.83;8.00;;;;;7.47;65.64;102032.53;2066742;27;2744042;-74
2024/02/28 01:28:53;;;;;;;;;9.33;8.00;;;;;7.51;65.88;102039.50;2035520;27;2752371;-73
2024/02/28 01:30:05;;;;;;;;;7.67;7.00;;;;;7.50;66.04;102037.78;2058708;27;2737780;-74
2024/02/28 01:31:18;;;;;;;;;6.67;6.67;;;;;7.47;66.10;102031.66;2032975;27;2746097;-74
2024/02/28 01:32:32;;;;;;;;;7.67;6.33;;;;;7.52;65.54;102043.00;2058691;27;2738814;-73
2024/02/28 01:33:45;;;;;;;;;7.83;6.33;;;;;7.51;65.67;102033.41;2061880;27;2738847;-74
2024/02/28 01:34:58;;;;;;;;;7.33;7.17;;;;;7.49;65.98;102037.78;2061301;27;2747129;-73
2024/02/28 01:36:09;;;;;;;;;9.67;7.00;;;;;7.49;65.69;102036.03;2032508;27;2758702;-73
2024/02/28 01:37:20;;;;;;;;;7.50;7.00;;;;;7.41;65.88;102020.31;2051877;28;2748209;-74
2024/02/28 01:38:34;;;;;;;;;8.67;8.00;;;;;7.48;65.90;102030.81;2053635;27;2747156;-73
2024/02/28 01:39:47;;;;;;;;;5.83;5.83;;;;;7.38;66.24;102022.06;2056464;27;2748209;-74
2024/02/28 01:41:00;;;;;;;;;7.50;7.00;;;;;7.38;65.94;102022.94;2029749;27;2731551;-73
2024/02/28 01:42:11;;;;;;;;;9.00;7.00;;;;;7.46;66.07;102041.25;2032854;27;2750356;-74
2024/02/28 01:43:22;;;;;;;;;6.33;6.00;;;;;7.43;65.80;102031.66;2047115;27;3467968;-74
2024/02/28 01:44:43;;;;;;;;;7.50;7.25;;;;;7.35;65.65;102022.06;2053970;27;2727376;-74
2024/02/28 01:45:53;;;;;;;;;10.00;7.67;;;;;7.34;65.79;102023.78;2032375;27;3481546;-73
2024/02/28 01:47:04;;;;;;;;;11.33;7.33;;;;;7.30;65.89;102020.31;2058689;27;2762752;-73
2024/02/28 01:48:17;;;;;;;;;9.83;8.00;;;;;7.39;66.10;102037.75;2031976;27;2748655;-74
2024/02/28 01:49:28;;;;;;;;;11.67;8.00;;;;;7.30;65.90;102019.44;2030039;27;3479424;-73
2024/02/28 01:50:41;;;;;;;;;8.00;6.67;;;;;7.29;65.67;102020.31;2050216;27;3468994;-74
2024/02/28 01:51:56;;;;;;;;;11.00;8.83;;;;;7.33;65.62;102032.53;2059545;27;2753442;-73
2024/02/28 01:53:08;;;;;;;;;7.67;7.67;;;;;7.31;65.83;102031.63;2011386;27;2737841;-73
2024/02/28 01:54:22;;;;;;;;;7.00;6.00;;;;;7.32;66.04;102036.00;2052674;27;2748201;-74
2024/02/28 01:55:33;;;;;;;;;6.00;6.00;;;;;7.31;65.64;102035.13;2028202;27;2750270;-73
2024/02/28 01:56:46;;;;;;;;;5.75;4.50;;;;;7.25;65.54;102036.88;2057551;27;2748165;-73
2024/02/28 01:57:59;;;;;;;;;7.50;7.50;;;;;7.19;65.70;102028.13;2068109;27;2741931;-73
2024/02/28 01:59:11;;;;;;;;;10.33;10.33;;;;;7.25;65.86;102045.59;2034042;27;2777473;-73
2024/02/28 02:00:22;;;;;;;;;6.67;6.00;;;;;7.22;65.55;102032.50;2030638;27;2753402;-73
2024/02/28 02:01:37;;;;;;;;;7.17;7.17;;;;;7.20;65.87;102037.75;2061791;27;2737757;-73
2024/02/28 02:02:47;;;;;;;;;11.00;7.00;;;;;7.14;65.55;102029.88;2030130;27;3491917;-73
2024/02/28 02:03:59;;;;;;;;;10.00;7.00;;;;;7.11;65.53;102029.88;2044734;27;3470039;-73
2024/02/28 02:05:09;;;;;;;;;7.67;5.33;;;;;7.17;65.94;102034.22;2034326;27;3465901;-73
2024/02/28 02:06:21;;;;;;;;;12.00;8.00;;;;;7.16;65.76;102046.44;2038979;27;3487786;-73
2024/02/28 02:07:35;;;;;;;;;8.67;7.33;;;;;7.13;66.04;102037.72;2059744;27;2743017;-73
2024/02/28 02:08:46;;;;;;;;;7.33;7.00;;;;;7.12;65.73;102038.56;2034657;27;2744042;-74
2024/02/28 02:09:57;;;;;;;;;7.50;7.50;;;;;7.01;65.53;102018.53;2040947;27;2747186;-73
2024/02/28 02:11:09;;;;;;;;;6.75;6.75;;;;;7.05;65.81;102028.13;2073889;27;2735662;-73
2024/02/28 02:12:19;;;;;;;;;7.00;6.00;;;;;7.00;66.02;102021.13;2031550;27;2742961;-73
2024/02/28 02:13:30;;;;;;;;;9.67;6.67;;;;;7.04;65.54;102022.84;2057743;27;2765944;-73
2024/02/28 02:14:47;;;;;;;;;7.00;7.00;;;;;7.06;65.53;102037.69;2060685;27;2748208;-73
2024/02/28 02:15:57;;;;;;;;;12.67;7.00;;;;;6.95;65.67;102024.59;2033558;27;2762504;-73
2024/02/28 02:17:08;;;;;;;;;9.00;7.33;;;;;6.91;65.61;102014.13;2050175;27;2739888;-73
2024/02/28 02:18:19;;;;;;;;;10.67;10.00;;;;;6.96;65.61;102031.56;2046040;27;3487771;-73
2024/02/28 02:19:30;;;;;;;;;8.00;7.00;;;;;6.90;65.91;102018.47;2052573;27;2744050;-73
2024/02/28 02:20:45;;;;;;;;;10.67;9.33;;;;;6.95;65.70;102032.44;2010214;27;2774259;-73
2024/02/28 02:21:59;;;;;;;;;6.67;6.67;;;;;6.89;66.00;102016.72;2052560;27;2735753;-73
2024/02/28 02:23:13;;;;;;;;;7.33;7.00;;;;;6.92;66.26;102019.34;2058119;27;2737793;-73
2024/02/28 02:24:27;;;;;;;;;9.50;8.33;;;;;6.91;66.02;102028.09;2064563;27;2756498;-73
2024/02/28 02:25:47;;;;;;;;;9.67;6.67;;;;;6.89;66.03;102029.78;2033041;27;3474258;-73
2024/02/28 02:27:04;;;;;;;;;8.50;8.00;;;;;6.89;65.69;102032.41;2056586;27;2748228;-73
2024/02/28 02:28:17;;;;;;;;;7.50;7.50;;;;;6.80;65.84;102021.91;2056920;27;2732545;-73
2024/02/28 02:29:31;;;;;;;;;7.00;7.00;;;;;6.84;65.71;102037.63;2061017;27;2733661;-73
2024/02/28 02:30:42;;;;;;;;;11.67;8.00;;;;;6.79;65.86;102033.25;2025797;27;3478368;-73
2024/02/28 02:31:52;;;;;;;;;9.33;7.00;;;;;6.77;65.87;102028.00;2028063;27;2756700;-73
2024/02/28 02:33:04;;;;;;;;;8.33;8.00;;;;;6.83;66.15;102042.84;2055551;27;2738223;-73
2024/02/28 02:34:15;;;;;;;;;13.75;10.50;;;;;6.80;65.92;102040.22;2023902;27;1840922;-73
2024/02/28 02:35:29;;;;;;;;;4.17;3.83;;;;;6.78;66.18;102044.56;2059661;27;2740882;-73
2024/02/28 02:36:39;;;;;;;;;11.33;10.67;;;;;6.77;66.17;102038.47;2032120;27;2784744;-73
2024/02/28 02:37:50;;;;;;;;;10.33;9.00;;;;;6.70;66.41;102024.50;2042927;27;2760817;-73
2024/02/28 02:39:01;;;;;;;;;9.67;9.67;;;;;6.72;66.42;102037.56;2048600;27;3486730;-73
2024/02/28 02:40:12;;;;;;;;;11.33;7.00;;;;;6.74;65.85;102041.09;2047538;27;2764874;-73
2024/02/28 02:41:24;;;;;;;;;8.75;7.00;;;;;6.69;65.78;102027.13;2059450;27;2727734;-73
2024/02/28 02:42:37;;;;;;;;;8.83;8.83;;;;;6.71;66.15;102036.72;2054928;27;2734658;-73
2024/02/28 02:43:47;;;;;;;;;13.00;9.33;;;;;6.61;65.95;102016.63;2000595;27;3490887;-73
2024/02/28 02:44:58;;;;;;;;;8.67;7.00;;;;;6.59;65.93;102016.59;2047329;27;2748273;-73
2024/02/28 02:46:09;;;;;;;;;11.33;11.00;;;;;6.66;65.98;102033.22;2049018;27;3507555;-73
2024/02/28 02:47:20;;;;;;;;;12.67;10.00;;;;;6.64;66.10;102029.72;2044693;27;3503765;-73
2024/02/28 02:48:31;;;;;;;;;11.67;9.67;;;;;6.59;65.97;102034.03;2038002;27;2771760;-73
2024/02/28 02:49:42;;;;;;;;;10.67;10.67;;;;;6.57;66.08;102026.19;2052679;27;1827410;-73
2024/02/28 02:50:53;;;;;;;;;11.00;10.00;;;;;6.61;66.17;102037.53;2002662;27;2771120;-73
2024/02/28 02:52:04;;;;;;;;;13.00;11.33;;;;;6.51;65.67;102019.22;2044135;27;3504406;-73
2024/02/28 02:53:16;;;;;;;;;14.25;14.00;;;;;6.55;66.23;102030.53;2051209;27;1844062;-73
2024/02/28 02:54:26;;;;;;;;;15.00;12.00;;;;;6.55;65.93;102029.66;2024399;27;3509597;-73
2024/02/28 02:55:37;;;;;;;;;11.00;9.00;;;;;6.53;65.78;102033.16;2045838;27;3495015;-73
2024/02/28 02:56:48;;;;;;;;;14.67;11.00;;;;;6.45;65.87;102021.78;2040739;27;2780054;-73
2024/02/28 02:58:00;;;;;;;;;13.33;11.00;;;;;6.48;65.78;102033.97;2048140;27;3511729;-73
2024/02/28 02:59:12;;;;;;;;;14.00;11.00;;;;;6.41;65.86;102028.75;2029457;27;2783977;-73
2024/02/28 03:00:25;;;;;;;;;10.83;10.33;;;;;6.47;65.98;102038.31;2059758;27;2760704;-73
2024/02/28 03:01:36;;;;;;;;;11.00;10.33;;;;;6.41;66.24;102022.63;2009506;27;3506496;-73
2024/02/28 03:02:46;;;;;;;;;12.00;11.00;;;;;6.43;65.89;102035.69;2047810;27;3517982;-73
2024/02/28 03:03:58;;;;;;;;;12.67;12.67;;;;;6.43;65.79;102044.41;2050112;27;3516107;-73
2024/02/28 03:05:09;;;;;;;;;9.33;9.33;;;;;6.45;66.22;102055.72;2063250;27;1843999;-73
2024/02/28 03:06:23;;;;;;;;;10.75;10.75;;;;;6.43;65.71;102057.47;2020970;27;1839858;-73
2024/02/28 03:07:34;;;;;;;;;13.67;12.00;;;;;6.42;66.21;102060.94;2038532;27;1837761;-73
2024/02/28 03:08:45;;;;;;;;;9.00;9.00;;;;;6.37;66.31;102047.00;2020649;27;1819656;-73
2024/02/28 03:09:56;;;;;;;;;11.67;11.00;;;;;6.38;66.05;102049.59;2021833;27;3515856;-73
2024/02/28 03:11:08;;;;;;;;;5.33;5.33;;;;;6.33;66.14;102046.09;2059774;27;2732600;-73
2024/02/28 03:12:21;;;;;;;;;15.75;12.25;;;;;6.34;66.30;102050.47;2024739;27;1850237;-73
2024/02/28 03:13:32;;;;;;;;;11.00;11.00;;;;;6.34;65.99;102052.19;2036293;27;2775260;-73
2024/02/28 03:14:43;;;;;;;;;9.33;9.33;;;;;6.33;66.26;102064.38;2042322;27;3476298;-73
2024/02/28 03:15:54;;;;;;;;;13.00;12.00;;;;;6.24;66.42;102046.91;2060870;27;1841938;-73
2024/02/28 03:17:04;;;;;;;;;14.00;12.00;;;;;6.22;65.97;102059.09;2007506;27;3511704;-73
2024/02/28 03:18:15;;;;;;;;;14.00;11.67;;;;;6.27;65.94;102069.56;2044801;27;3522173;-73
2024/02/28 03:19:27;;;;;;;;;10.33;10.00;;;;;6.24;66.45;102064.31;2048691;27;3503390;-73
2024/02/28 03:20:39;;;;;;;;;10.00;9.67;;;;;6.29;66.26;102073.94;2026225;27;3491894;-73
2024/02/28 03:21:49;;;;;;;;;13.00;11.00;;;;;6.21;66.34;102066.91;2024889;27;3513808;-73
2024/02/28 03:23:00;;;;;;;;;10.00;8.67;;;;;6.18;66.42;102058.19;2046169;27;2758067;-73
2024/02/28 03:24:11;;;;;;;;;12.00;12.00;;;;;6.21;66.31;102072.13;2047658;27;2788842;-73
2024/02/28 03:25:22;;;;;;;;;12.33;10.00;;;;;6.15;66.44;102067.75;2045998;27;3496076;-73
2024/02/28 03:26:33;;;;;;;;;14.00;11.00;;;;;6.25;66.40;102085.19;2058948;27;1854515;-73
2024/02/28 03:27:44;;;;;;;;;16.33;11.00;;;;;6.21;66.52;102073.00;2007955;27;3517978;-73
2024/02/28 03:28:54;;;;;;;;;11.00;10.00;;;;;6.20;66.59;102084.28;2045177;27;3507529;-73
2024/02/28 03:30:06;;;;;;;;;16.50;11.50;;;;;6.21;66.59;102086.06;2043250;27;2794024;-73
2024/02/28 03:31:16;;;;;;;;;11.33;10.00;;;;;6.13;66.41;102072.06;2031410;27;3503359;-73
2024/02/28 03:32:27;;;;;;;;;17.00;11.00;;;;;6.12;66.86;102075.56;2057115;27;2798195;-73
2024/02/28 03:33:39;;;;;;;;;11.75;11.50;;;;;6.07;66.60;102065.94;2063660;27;1842000;-73
2024/02/28 03:34:50;;;;;;;;;13.50;11.50;;;;;6.20;66.76;102092.13;2026772;27;2790233;-73
2024/02/28 03:36:01;;;;;;;;;11.00;10.00;;;;;6.17;66.86;102087.75;2039431;27;3503395;-73
2024/02/28 03:37:12;;;;;;;;;12.33;10.67;;;;;6.17;66.79;102090.38;2031420;27;2785724;-73
2024/02/28 03:38:24;;;;;;;;;18.25;12.00;;;;;6.16;66.84;102091.25;2051583;27;1846705;-73
2024/02/28 03:39:35;;;;;;;;;13.25;12.50;;;;;6.12;66.56;102086.00;2047052;27;1836798;-73
2024/02/28 03:40:46;;;;;;;;;10.67;10.67;;;;;6.18;66.61;102099.06;2031642;27;3511693;-73
2024/02/28 03:41:57;;;;;;;;;15.00;13.00;;;;;6.17;66.82;102087.75;2045502;27;2796091;-73
2024/02/28 03:43:08;;;;;;;;;12.60;11.80;;;;;6.17;66.60;102089.50;2064067;27;1861466;-73
2024/02/28 03:44:21;;;;;;;;;11.33;10.67;;;;;6.13;66.50;102079.88;2045124;27;1841971;-73
2024/02/28 03:45:36;;;;;;;;;9.67;9.67;;;;;6.07;66.79;102073.75;2011691;27;2762784;-73
2024/02/28 03:46:47;;;;;;;;;12.00;11.00;;;;;6.10;66.70;102072.06;2030973;27;3502318;-73
2024/02/28 03:47:58;;;;;;;;;14.33;12.00;;;;;6.09;66.44;102073.78;2037053;27;3514822;-73
2024/02/28 03:49:09;;;;;;;;;9.67;9.67;;;;;6.15;66.66;102083.41;2043332;27;3482536;-73
2024/02/28 03:50:20;;;;;;;;;12.33;10.67;;;;;6.12;66.97;102072.94;2042969;27;3511121;-73
2024/02/28 03:51:31;;;;;;;;;12.67;11.00;;;;;6.12;66.92;102072.94;2045336;27;3503384;-73
2024/02/28 03:52:42;;;;;;;;;14.33;12.00;;;;;6.15;66.40;102084.25;2062605;27;1848177;-73
2024/02/28 03:53:52;;;;;;;;;14.00;10.00;;;;;6.06;66.89;102061.56;2004479;27;3508610;-73
2024/02/28 03:55:03;;;;;;;;;13.00;11.67;;;;;6.14;66.61;102084.25;2056863;27;1846696;-73
2024/02/28 03:56:32;;;;;;;;;13.00;11.00;;;;;6.05;66.91;102072.84;2031975;27;1842124;-73
2024/02/28 03:57:47;;;;;;;;;12.33;11.00;;;;;6.07;66.98;102080.75;2026419;27;3496148;-73
2024/02/28 03:58:58;;;;;;;;;12.75;12.25;;;;;6.12;67.16;102089.47;2039863;27;1844057;-73
2024/02/28 04:00:09;;;;;;;;;12.00;10.67;;;;;6.06;66.74;102084.16;2031616;27;3512294;-73
2024/02/28 04:01:20;;;;;;;;;12.50;10.50;;;;;6.03;67.19;102085.00;2034200;27;2779435;-73
2024/02/28 04:02:31;;;;;;;;;11.00;10.00;;;;;6.01;66.91;102080.66;2043885;27;3496089;-73
2024/02/28 04:03:42;;;;;;;;;15.00;11.33;;;;;6.06;67.01;102079.81;2042297;27;3513839;-73
2024/02/28 04:04:53;;;;;;;;;11.00;10.00;;;;;6.02;67.07;102078.06;2046997;27;3506501;-73
2024/02/28 04:06:04;;;;;;;;;14.67;12.67;;;;;6.12;66.85;102099.94;2047718;27;3504437;-73
2024/02/28 04:07:15;;;;;;;;;12.33;11.33;;;;;6.10;67.02;102082.50;2043821;27;3507518;-73
2024/02/28 04:08:26;;;;;;;;;10.33;9.33;;;;;6.10;67.20;102090.34;2045220;27;3494053;-73
2024/02/28 04:09:36;;;;;;;;;12.00;12.00;;;;;6.00;67.12;102079.75;2041985;27;2782576;-73
2024/02/28 04:10:50;;;;;;;;;17.00;12.00;;;;;6.02;66.95;102070.22;2042231;27;2798163;-73
2024/02/28 04:12:00;;;;;;;;;13.50;10.00;;;;;6.03;67.26;102064.13;2032305;27;2785668;-73
2024/02/28 04:13:11;;;;;;;;;15.00;11.00;;;;;6.05;67.16;102075.44;2032912;27;2784041;-73
2024/02/28 04:14:22;;;;;;;;;12.00;12.00;;;;;6.06;67.08;102069.38;2046294;27;2780472;-73
2024/02/28 04:15:33;;;;;;;;;11.33;11.33;;;;;6.01;67.35;102060.63;2046108;27;3514857;-73
2024/02/28 04:16:44;;;;;;;;;12.00;12.00;;;;;5.97;67.05;102051.06;2044395;27;3506473;-73
2024/02/28 04:17:56;;;;;;;;;14.00;11.25;;;;;6.06;67.18;102068.50;2057413;27;1837815;-73
2024/02/28 04:19:06;;;;;;;;;13.33;11.33;;;;;6.13;67.35;102085.13;2026860;27;3511710;-73
2024/02/28 04:20:17;;;;;;;;;13.00;11.00;;;;;6.11;67.13;102076.41;2045748;27;2788869;-73
2024/02/28 04:21:28;;;;;;;;;12.00;12.00;;;;;6.08;67.00;102078.13;2048712;27;2781529;-73
2024/02/28 04:22:39;;;;;;;;;11.33;8.67;;;;;6.08;67.39;102074.63;2049334;27;2759604;-73
2024/02/28 04:23:50;;;;;;;;;12.00;9.00;;;;;6.11;67.06;102081.63;2015167;27;1831508;-73
2024/02/28 04:25:01;;;;;;;;;11.00;11.00;;;;;6.01;67.21;102065.88;2012908;27;3510686;-73
2024/02/28 04:26:12;;;;;;;;;13.00;12.00;;;;;6.12;66.92;102078.16;2041030;27;2787798;-73
2024/02/28 04:27:23;;;;;;;;;10.00;10.00;;;;;6.05;67.37;102069.38;2059044;27;1838835;-73
2024/02/28 04:28:34;;;;;;;;;12.67;12.67;;;;;6.11;67.21;102076.41;2035973;27;1847227;-73
2024/02/28 04:29:45;;;;;;;;;13.00;12.00;;;;;6.13;66.81;102082.50;2001777;27;3502667;-73
2024/02/28 04:30:56;;;;;;;;;12.50;11.00;;;;;6.12;67.21;102088.59;2020441;27;2786718;-73
2024/02/28 04:32:07;;;;;;;;;12.00;8.33;;;;;6.08;67.07;102082.47;2044645;27;3488772;-73
2024/02/28 04:33:18;;;;;;;;;15.50;13.00;;;;;6.07;67.57;102078.13;2047598;27;2796091;-73
2024/02/28 04:34:29;;;;;;;;;14.60;10.80;;;;;6.06;67.10;102087.66;2063438;27;1854667;-73
2024/02/28 04:35:41;;;;;;;;;14.75;11.50;;;;;6.07;67.29;102091.19;2044162;27;1833711;-73
2024/02/28 04:36:51;;;;;;;;;13.50;12.00;;;;;6.07;67.33;102092.03;2020734;27;2785711;-73
2024/02/28 04:38:03;;;;;;;;;13.00;11.00;;;;;6.03;66.85;102082.41;2039797;27;2779470;-73
2024/02/28 04:39:16;;;;;;;;;7.50;6.00;;;;;6.06;67.58;102092.00;2057634;27;2745179;-73
2024/02/28 04:40:27;;;;;;;;;12.00;11.50;;;;;6.05;67.61;102083.28;2044001;27;1839941;-73
2024/02/28 04:41:38;;;;;;;;;15.50;12.50;;;;;6.01;67.01;102080.66;2048321;27;1840911;-73
2024/02/28 04:42:49;;;;;;;;;11.00;11.00;;;;;5.97;67.67;102077.16;2033963;27;3517907;-73
2024/02/28 04:44:00;;;;;;;;;10.67;10.00;;;;;6.03;67.38;102090.22;2040124;27;1839946;-73
2024/02/28 04:45:11;;;;;;;;;14.00;12.00;;;;;6.01;67.23;102084.13;2023054;27;1848161;-73
2024/02/28 04:46:22;;;;;;;;;13.00;12.00;;;;;5.96;67.09;102073.66;2029129;27;2794097;-72
2024/02/28 04:47:33;;;;;;;;;14.67;12.00;;;;;6.02;67.42;102087.63;2047913;27;3515859;-73
2024/02/28 04:48:44;;;;;;;;;11.33;11.00;;;;;5.98;67.52;102086.72;2047012;27;3502315;-73
2024/02/28 04:49:55;;;;;;;;;11.50;11.50;;;;;6.00;67.40;102097.19;2042814;27;2786733;-73
2024/02/28 04:51:06;;;;;;;;;9.00;8.00;;;;;5.93;67.33;102091.91;2052149;27;2746055;-73
2024/02/28 04:52:16;;;;;;;;;12.00;10.67;;;;;5.95;67.16;102091.94;2010401;27;3511679;-73
2024/02/28 04:53:28;;;;;;;;;16.67;13.67;;;;;5.97;66.78;102093.66;2056528;27;3531512;-73
2024/02/28 04:54:41;;;;;;;;;11.17;10.50;;;;;5.89;66.86;102076.19;2053600;27;2751829;-73
2024/02/28 04:55:52;;;;;;;;;19.00;13.25;;;;;5.96;66.86;102096.28;2038761;27;1854542;-73
2024/02/28 04:57:03;;;;;;;;;14.00;12.50;;;;;5.93;67.13;102093.63;2029897;27;2789893;-73
2024/02/28 04:58:14;;;;;;;;;12.67;9.67;;;;;5.88;67.07;102093.59;2035346;27;3499228;-73
2024/02/28 04:59:25;;;;;;;;;10.33;9.67;;;;;5.94;67.19;102105.81;2048899;27;3490863;-73
2024/02/28 05:00:36;;;;;;;;;13.50;9.75;;;;;5.93;67.46;102104.94;2047156;27;1829494;-73
2024/02/28 05:01:48;;;;;;;;;18.00;13.00;;;;;5.89;67.49;102102.28;2024210;27;2796100;-73
2024/02/28 05:02:58;;;;;;;;;14.00;12.00;;;;;5.87;67.42;102097.06;2031897;27;2787770;-73
2024/02/28 05:04:09;;;;;;;;;13.00;11.00;;;;;5.83;67.42;102096.16;2042834;27;3518422;-73
2024/02/28 05:05:21;;;;;;;;;12.00;12.00;;;;;5.89;67.65;102108.41;2050750;27;1844536;-73
2024/02/28 05:06:31;;;;;;;;;12.67;10.67;;;;;5.88;67.19;102103.19;2031755;27;3505471;-73
2024/02/28 05:07:43;;;;;;;;;10.75;10.75;;;;;5.85;67.57;102102.25;2058998;27;1846152;-73
2024/02/28 05:08:54;;;;;;;;;11.00;9.00;;;;;5.85;67.36;102107.47;2034866;27;2766958;-73
2024/02/28 05:10:05;;;;;;;;;10.67;10.67;;;;;5.84;67.70;102104.88;2034090;27;3516912;-73
2024/02/28 05:11:17;;;;;;;;;13.50;13.00;;;;;5.79;67.50;102090.91;2047165;27;1838815;-73
2024/02/28 05:12:27;;;;;;;;;10.67;10.00;;;;;5.77;67.44;102093.50;2033352;27;3476357;-73
2024/02/28 05:13:38;;;;;;;;;13.00;12.33;;;;;5.78;67.40;102100.47;2050198;27;3508580;-73
2024/02/28 05:14:49;;;;;;;;;12.67;12.67;;;;;5.83;67.45;102109.22;2047889;27;3517941;-73
2024/02/28 05:16:00;;;;;;;;;12.50;12.00;;;;;5.83;67.33;102108.31;2048280;27;2802366;-73
2024/02/28 05:17:11;;;;;;;;;11.00;9.67;;;;;5.83;67.65;102106.59;2038607;27;3490201;-73
2024/02/28 05:18:22;;;;;;;;;12.00;11.33;;;;;5.83;67.66;102104.00;2048847;27;3517970;-73
2024/02/28 05:19:33;;;;;;;;;17.00;14.50;;;;;5.83;67.53;102109.22;2046063;27;2820116;-73
2024/02/28 05:20:44;;;;;;;;;18.00;13.50;;;;;5.76;67.50;102101.31;2050229;27;2805825;-73
2024/02/28 05:21:55;;;;;;;;;12.00;11.00;;;;;5.83;67.42;102114.44;2020494;27;3501272;-73
2024/02/28 05:23:06;;;;;;;;;12.00;10.00;;;;;5.83;67.40;102109.22;2048835;27;2772505;-73
2024/02/28 05:24:18;;;;;;;;;15.75;12.00;;;;;5.78;67.30;102105.69;2059795;27;1841988;-73
2024/02/28 05:25:28;;;;;;;;;12.00;12.00;;;;;5.80;67.60;102108.31;2023051;27;2780484;-73